»·PEaware :: N224LW KPDX-KBFI

N224LW :: KPDX-KBFI

FLIGHT INFORMATION

Flight Status: Arrived
Operator: Privately registered:
United States
More flights under this callsign
Pilot: Rod T. (6553)
Aircraft: CIRRUS SR-22 TURBO
(S22T)
More flights by this aircraft type
Origin: KPDX Portland Intl
United States
Destination: KBFI Boeing Field/King Co Intl
United States
More flights between these airports :: More routes between these airports
Route: BTG V23 SEA
File this flight plan on PilotEdge
Remarks:
Altitude:
(Current/Filed)
6,000ft
Speed:
(Current/Filed)
180kts
Departed: 24-Dec-17 04:29 PM
Arrived: 24-Dec-17 05:23 PM
Distance/Time
Traveled:
117nm/0:54
Distance/Time
To Go:
Arrived

Flight Plot

Page will automatically refresh every two minutes.

Flight plan parsing failed; only flown route is shown


Map Options




Map Legend


Flown Route
Filed Route
Departure Airport
Arrival Airport
Navaid (VOR, NDB)
Fix

Horizontal Profiles

Position Reports

Time Latitude Longitude Heading Altitude Ground
Speed
24-Dec-17 16:26 45.587678 -122.584521 61 31ft 0kts
24-Dec-17 16:27 45.587678 -122.584521 61 31ft 0kts
24-Dec-17 16:28 45.587678 -122.584521 61 31ft 0kts
24-Dec-17 16:29 45.587678 -122.584521 61 31ft 0kts
24-Dec-17 16:30 45.587678 -122.584521 61 31ft 0kts
24-Dec-17 16:31 45.587678 -122.584521 61 31ft 0kts
24-Dec-17 16:32 45.589590 -122.585446 271 31ft 17kts
24-Dec-17 16:33 45.593117 -122.596675 299 31ft 39kts
24-Dec-17 16:34 45.595796 -122.600407 37 31ft 10kts
24-Dec-17 16:35 45.587697 -122.575999 109 895ft 90kts
24-Dec-17 16:36 45.574962 -122.543366 114 2363ft 94kts
24-Dec-17 16:37 45.583230 -122.518173 346 3539ft 131kts
24-Dec-17 16:38 45.619442 -122.531997 339 4914ft 136kts
24-Dec-17 16:39 45.656719 -122.548392 338 5980ft 159kts
24-Dec-17 16:40 45.696685 -122.566779 338 6001ft 181kts
24-Dec-17 16:41 45.745548 -122.589138 339 6000ft 186kts
24-Dec-17 16:42 45.796433 -122.602531 347 5987ft 188kts
24-Dec-17 16:43 45.848302 -122.615447 347 5946ft 189kts
24-Dec-17 16:44 45.900042 -122.628330 347 5946ft 188kts
24-Dec-17 16:45 45.951196 -122.641100 347 5983ft 188kts
24-Dec-17 16:46 46.002873 -122.654076 347 5983ft 188kts
24-Dec-17 16:47 46.054422 -122.666938 347 5983ft 188kts
24-Dec-17 16:48 46.105870 -122.679870 347 5981ft 188kts
24-Dec-17 16:49 46.157208 -122.692775 347 5980ft 188kts
24-Dec-17 16:50 46.208783 -122.705763 347 5980ft 188kts
24-Dec-17 16:51 46.260366 -122.718805 347 5980ft 188kts
24-Dec-17 16:52 46.311707 -122.731785 348 5980ft 188kts
24-Dec-17 16:53 46.363157 -122.744829 347 5980ft 188kts
24-Dec-17 16:54 46.409256 -122.756537 348 5980ft 188kts
24-Dec-17 16:55 46.460332 -122.744361 16 5981ft 190kts
24-Dec-17 16:56 46.510831 -122.722316 16 5981ft 190kts
24-Dec-17 16:57 46.561230 -122.700213 16 5981ft 190kts
24-Dec-17 16:58 46.611915 -122.678067 16 5981ft 189kts
24-Dec-17 16:59 46.662141 -122.655849 16 5981ft 190kts
24-Dec-17 17:00 46.712737 -122.633514 16 5982ft 190kts
24-Dec-17 17:01 46.763258 -122.611195 16 5982ft 190kts
24-Dec-17 17:02 46.813407 -122.588986 16 5965ft 191kts
24-Dec-17 17:03 46.864398 -122.566356 16 5955ft 191kts
24-Dec-17 17:04 46.909518 -122.546294 16 5955ft 191kts
24-Dec-17 17:05 46.960168 -122.523749 16 5955ft 191kts
24-Dec-17 17:06 47.010990 -122.501080 16 5956ft 191kts
24-Dec-17 17:07 47.061867 -122.478330 16 5956ft 191kts
24-Dec-17 17:08 47.112288 -122.455729 16 5953ft 191kts
24-Dec-17 17:09 47.163257 -122.432864 16 5953ft 190kts
24-Dec-17 17:10 47.207717 -122.412860 16 5962ft 190kts
24-Dec-17 17:11 47.258022 -122.390180 16 5980ft 189kts
24-Dec-17 17:12 47.306448 -122.385700 316 5783ft 193kts
24-Dec-17 17:13 47.347254 -122.441480 313 4889ft 203kts
24-Dec-17 17:14 47.387777 -122.497768 313 4000ft 203kts
24-Dec-17 17:15 47.428420 -122.554704 314 3111ft 201kts
24-Dec-17 17:16 47.467735 -122.613601 328 2248ft 199kts
24-Dec-17 17:17 47.512664 -122.588359 36 1979ft 172kts
24-Dec-17 17:18 47.552132 -122.550252 36 1980ft 168kts
24-Dec-17 17:19 47.591409 -122.512334 36 1980ft 168kts
24-Dec-17 17:20 47.629914 -122.475218 36 1978ft 155kts
24-Dec-17 17:21 47.657011 -122.435383 105 1980ft 135kts
24-Dec-17 17:22 47.636254 -122.392837 147 1981ft 124kts
24-Dec-17 17:23 47.608262 -122.369418 146 1551ft 113kts
24-Dec-17 17:24 47.586266 -122.350885 145 1056ft 84kts
24-Dec-17 17:29 47.529728 -122.298333 72 22ft 7kts
24-Dec-17 17:30 47.529968 -122.298211 337 22ft 6kts
24-Dec-17 17:31 47.530112 -122.298347 327 22ft 0kts

Navigation Log

Ident Type
Flight plan parsing failed, navigation log unavailable